sensor_id;sensor_type;location;lat;lon;timestamp;temperature;humidity
65472;DHT22;52068;50.710;14.492;2022-12-07T00:02:01;20.86;45.46
65472;DHT22;52068;50.710;14.492;2022-12-07T00:04:26;20.88;45.42
65472;DHT22;52068;50.710;14.492;2022-12-07T00:06:52;20.86;45.36
65472;DHT22;52068;50.710;14.492;2022-12-07T00:09:18;20.89;45.38
65472;DHT22;52068;50.710;14.492;2022-12-07T00:11:45;20.91;45.31
65472;DHT22;52068;50.710;14.492;2022-12-07T00:14:14;20.99;45.01
65472;DHT22;52068;50.710;14.492;2022-12-07T00:16:40;21.02;45.02
65472;DHT22;52068;50.710;14.492;2022-12-07T00:19:06;21.07;44.86
65472;DHT22;52068;50.710;14.492;2022-12-07T00:21:33;21.09;44.81
65472;DHT22;52068;50.710;14.492;2022-12-07T00:24:00;21.12;44.77
65472;DHT22;52068;50.710;14.492;2022-12-07T00:26:31;21.12;44.77
65472;DHT22;52068;50.710;14.492;2022-12-07T00:28:59;21.09;44.70
65472;DHT22;52068;50.710;14.492;2022-12-07T00:31:28;21.07;44.76
65472;DHT22;52068;50.710;14.492;2022-12-07T00:33:53;21.04;44.83
65472;DHT22;52068;50.710;14.492;2022-12-07T00:36:21;21.04;44.85
65472;DHT22;52068;50.710;14.492;2022-12-07T00:38:47;21.00;44.95
65472;DHT22;52068;50.710;14.492;2022-12-07T00:41:18;21.00;45.01
65472;DHT22;52068;50.710;14.492;2022-12-07T00:43:45;20.99;44.82
65472;DHT22;52068;50.710;14.492;2022-12-07T00:46:11;20.96;44.99
65472;DHT22;52068;50.710;14.492;2022-12-07T00:48:36;20.96;44.87
65472;DHT22;52068;50.710;14.492;2022-12-07T00:51:02;20.92;44.95
65472;DHT22;52068;50.710;14.492;2022-12-07T00:53:28;20.89;44.98
65472;DHT22;52068;50.710;14.492;2022-12-07T00:55:54;20.89;44.99
65472;DHT22;52068;50.710;14.492;2022-12-07T00:58:20;20.89;45.24
65472;DHT22;52068;50.710;14.492;2022-12-07T01:00:46;20.89;44.86
65472;DHT22;52068;50.710;14.492;2022-12-07T01:03:13;20.92;44.95
65472;DHT22;52068;50.710;14.492;2022-12-07T01:05:39;20.99;44.89
65472;DHT22;52068;50.710;14.492;2022-12-07T01:08:05;21.03;44.63
65472;DHT22;52068;50.710;14.492;2022-12-07T01:10:31;21.12;44.40
65472;DHT22;52068;50.710;14.492;2022-12-07T01:12:58;21.14;44.36
65472;DHT22;52068;50.710;14.492;2022-12-07T01:15:24;21.19;44.24
65472;DHT22;52068;50.710;14.492;2022-12-07T01:17:50;21.19;44.34
65472;DHT22;52068;50.710;14.492;2022-12-07T01:20:16;21.18;44.10
65472;DHT22;52068;50.710;14.492;2022-12-07T01:22:42;21.16;43.94
65472;DHT22;52068;50.710;14.492;2022-12-07T01:25:09;21.14;44.03
65472;DHT22;52068;50.710;14.492;2022-12-07T01:27:35;21.10;43.95
65472;DHT22;52068;50.710;14.492;2022-12-07T01:30:02;21.07;44.21
65472;DHT22;52068;50.710;14.492;2022-12-07T01:32:28;21.03;44.09
65472;DHT22;52068;50.710;14.492;2022-12-07T01:34:54;20.96;44.25
65472;DHT22;52068;50.710;14.492;2022-12-07T01:37:19;20.96;44.40
65472;DHT22;52068;50.710;14.492;2022-12-07T01:39:48;20.91;44.64
65472;DHT22;52068;50.710;14.492;2022-12-07T01:42:13;20.88;44.61
65472;DHT22;52068;50.710;14.492;2022-12-07T01:47:56;20.76;44.71
65472;DHT22;52068;50.710;14.492;2022-12-07T01:50:25;20.76;44.85
65472;DHT22;52068;50.710;14.492;2022-12-07T01:52:53;20.81;44.70
65472;DHT22;52068;50.710;14.492;2022-12-07T01:55:21;21.00;44.16
65472;DHT22;52068;50.710;14.492;2022-12-07T01:57:49;21.23;43.26
65472;DHT22;52068;50.710;14.492;2022-12-07T02:00:16;21.49;42.52
65472;DHT22;52068;50.710;14.492;2022-12-07T02:05:10;21.90;41.90
65472;DHT22;52068;50.710;14.492;2022-12-07T02:07:37;21.98;41.60
65472;DHT22;52068;50.710;14.492;2022-12-07T02:10:35;21.97;41.43
65472;DHT22;52068;50.710;14.492;2022-12-07T02:13:15;21.91;41.72
65472;DHT22;52068;50.710;14.492;2022-12-07T02:15:53;21.88;41.77
65472;DHT22;52068;50.710;14.492;2022-12-07T02:21:27;21.71;42.17
65472;DHT22;52068;50.710;14.492;2022-12-07T02:29:58;21.44;42.81
65472;DHT22;52068;50.710;14.492;2022-12-07T02:35:11;21.34;43.09
65472;DHT22;52068;50.710;14.492;2022-12-07T02:38:02;21.26;43.23
65472;DHT22;52068;50.710;14.492;2022-12-07T02:43:04;21.12;43.53
65472;DHT22;52068;50.710;14.492;2022-12-07T02:45:34;21.04;43.72
65472;DHT22;52068;50.710;14.492;2022-12-07T02:48:00;21.00;43.95
65472;DHT22;52068;50.710;14.492;2022-12-07T02:50:27;20.98;43.99
65472;DHT22;52068;50.710;14.492;2022-12-07T02:52:53;20.93;44.06
65472;DHT22;52068;50.710;14.492;2022-12-07T02:55:23;20.92;44.14
65472;DHT22;52068;50.710;14.492;2022-12-07T02:58:49;21.00;43.71
65472;DHT22;52068;50.710;14.492;2022-12-07T03:01:54;21.22;43.03
65472;DHT22;52068;50.710;14.492;2022-12-07T03:04:43;21.39;42.67
65472;DHT22;52068;50.710;14.492;2022-12-07T03:07:32;21.54;42.44
65472;DHT22;52068;50.710;14.492;2022-12-07T03:10:06;21.61;42.22
65472;DHT22;52068;50.710;14.492;2022-12-07T03:13:02;21.61;42.26
65472;DHT22;52068;50.710;14.492;2022-12-07T03:18:03;21.55;42.24
65472;DHT22;52068;50.710;14.492;2022-12-07T03:20:31;21.50;42.40
65472;DHT22;52068;50.710;14.492;2022-12-07T03:22:59;21.43;42.25
65472;DHT22;52068;50.710;14.492;2022-12-07T03:25:25;21.37;42.12
65472;DHT22;52068;50.710;14.492;2022-12-07T03:27:58;21.30;42.53
65472;DHT22;52068;50.710;14.492;2022-12-07T03:30:31;21.24;42.63
65472;DHT22;52068;50.710;14.492;2022-12-07T03:33:13;21.22;42.90
65472;DHT22;52068;50.710;14.492;2022-12-07T03:35:44;21.13;43.23
65472;DHT22;52068;50.710;14.492;2022-12-07T03:38:21;21.09;43.27
65472;DHT22;52068;50.710;14.492;2022-12-07T03:41:11;21.03;43.08
65472;DHT22;52068;50.710;14.492;2022-12-07T03:43:34;20.99;43.47
65472;DHT22;52068;50.710;14.492;2022-12-07T03:51:44;21.02;43.22
65472;DHT22;52068;50.710;14.492;2022-12-07T03:54:21;21.16;42.60
65472;DHT22;52068;50.710;14.492;2022-12-07T03:56:50;21.29;42.57
65472;DHT22;52068;50.710;14.492;2022-12-07T03:59:16;21.40;42.06
65472;DHT22;52068;50.710;14.492;2022-12-07T04:01:44;21.47;41.92
65472;DHT22;52068;50.710;14.492;2022-12-07T04:04:09;21.49;41.92
65472;DHT22;52068;50.710;14.492;2022-12-07T04:06:35;21.47;41.81
65472;DHT22;52068;50.710;14.492;2022-12-07T04:09:00;21.46;42.17
65472;DHT22;52068;50.710;14.492;2022-12-07T04:11:25;21.40;42.16
65472;DHT22;52068;50.710;14.492;2022-12-07T04:13:51;21.34;42.45
65472;DHT22;52068;50.710;14.492;2022-12-07T04:16:35;21.29;42.65
65472;DHT22;52068;50.710;14.492;2022-12-07T04:19:00;21.20;42.82
65472;DHT22;52068;50.710;14.492;2022-12-07T04:21:25;21.12;42.98
65472;DHT22;52068;50.710;14.492;2022-12-07T04:23:51;21.07;43.21
65472;DHT22;52068;50.710;14.492;2022-12-07T04:26:16;21.00;43.18
65472;DHT22;52068;50.710;14.492;2022-12-07T04:28:41;20.95;43.34
65472;DHT22;52068;50.710;14.492;2022-12-07T04:31:07;20.89;43.49
65472;DHT22;52068;50.710;14.492;2022-12-07T04:33:32;20.83;43.65
65472;DHT22;52068;50.710;14.492;2022-12-07T04:35:58;20.83;43.49
65472;DHT22;52068;50.710;14.492;2022-12-07T04:38:23;20.98;43.15
65472;DHT22;52068;50.710;14.492;2022-12-07T04:40:48;21.29;42.58
65472;DHT22;52068;50.710;14.492;2022-12-07T04:43:14;21.67;41.64
65472;DHT22;52068;50.710;14.492;2022-12-07T04:45:39;22.08;40.86
65472;DHT22;52068;50.710;14.492;2022-12-07T04:48:05;22.39;39.89
65472;DHT22;52068;50.710;14.492;2022-12-07T04:50:30;22.60;39.24
65472;DHT22;52068;50.710;14.492;2022-12-07T04:52:55;22.64;39.24
65472;DHT22;52068;50.710;14.492;2022-12-07T04:55:21;22.60;39.20
65472;DHT22;52068;50.710;14.492;2022-12-07T04:57:46;22.52;39.23
65472;DHT22;52068;50.710;14.492;2022-12-07T05:00:11;22.45;39.47
65472;DHT22;52068;50.710;14.492;2022-12-07T05:02:37;22.35;39.28
65472;DHT22;52068;50.710;14.492;2022-12-07T05:05:02;22.24;39.73
65472;DHT22;52068;50.710;14.492;2022-12-07T05:07:28;22.14;39.38
65472;DHT22;52068;50.710;14.492;2022-12-07T05:09:53;22.00;39.78
65472;DHT22;52068;50.710;14.492;2022-12-07T05:12:18;21.88;40.19
65472;DHT22;52068;50.710;14.492;2022-12-07T05:14:44;21.78;40.82
65472;DHT22;52068;50.710;14.492;2022-12-07T05:17:09;21.65;41.03
65472;DHT22;52068;50.710;14.492;2022-12-07T05:19:36;21.54;41.36
65472;DHT22;52068;50.710;14.492;2022-12-07T05:22:02;21.47;41.66
65472;DHT22;52068;50.710;14.492;2022-12-07T05:24:27;21.36;41.83
65472;DHT22;52068;50.710;14.492;2022-12-07T05:26:52;21.30;42.19
65472;DHT22;52068;50.710;14.492;2022-12-07T05:29:18;21.20;42.31
65472;DHT22;52068;50.710;14.492;2022-12-07T05:31:44;21.13;42.37
65472;DHT22;52068;50.710;14.492;2022-12-07T05:34:10;21.07;42.69
65472;DHT22;52068;50.710;14.492;2022-12-07T05:36:36;21.02;42.81
65472;DHT22;52068;50.710;14.492;2022-12-07T05:39:01;20.91;42.92
65472;DHT22;52068;50.710;14.492;2022-12-07T05:41:27;20.86;43.06
65472;DHT22;52068;50.710;14.492;2022-12-07T05:44:11;21.00;42.74
65472;DHT22;52068;50.710;14.492;2022-12-07T05:46:36;21.32;42.03
65472;DHT22;52068;50.710;14.492;2022-12-07T05:49:02;21.78;40.98
65472;DHT22;52068;50.710;14.492;2022-12-07T05:51:27;22.21;40.16
65472;DHT22;52068;50.710;14.492;2022-12-07T05:53:53;22.55;39.41
65472;DHT22;52068;50.710;14.492;2022-12-07T05:56:18;22.77;38.84
65472;DHT22;52068;50.710;14.492;2022-12-07T05:58:44;22.89;38.55
65472;DHT22;52068;50.710;14.492;2022-12-07T06:01:28;22.84;38.53
65472;DHT22;52068;50.710;14.492;2022-12-07T06:03:53;22.77;38.65
65472;DHT22;52068;50.710;14.492;2022-12-07T06:06:19;22.67;38.87
65472;DHT22;52068;50.710;14.492;2022-12-07T06:08:44;22.51;39.19
65472;DHT22;52068;50.710;14.492;2022-12-07T06:11:09;22.39;39.25
65472;DHT22;52068;50.710;14.492;2022-12-07T06:13:58;22.19;39.48
65472;DHT22;52068;50.710;14.492;2022-12-07T06:16:23;22.05;39.54
65472;DHT22;52068;50.710;14.492;2022-12-07T06:18:48;21.92;39.72
65472;DHT22;52068;50.710;14.492;2022-12-07T06:21:14;21.75;40.18
65472;DHT22;52068;50.710;14.492;2022-12-07T06:23:39;21.64;40.21
65472;DHT22;52068;50.710;14.492;2022-12-07T06:26:05;21.55;40.70
65472;DHT22;52068;50.710;14.492;2022-12-07T06:28:30;21.43;40.50
65472;DHT22;52068;50.710;14.492;2022-12-07T06:31:02;21.32;41.71
65472;DHT22;52068;50.710;14.492;2022-12-07T06:33:28;21.23;42.41
65472;DHT22;52068;50.710;14.492;2022-12-07T06:35:54;21.18;42.77
65472;DHT22;52068;50.710;14.492;2022-12-07T06:38:20;21.18;42.81
65472;DHT22;52068;50.710;14.492;2022-12-07T06:40:45;21.10;42.70
65472;DHT22;52068;50.710;14.492;2022-12-07T06:43:11;21.06;42.58
65472;DHT22;52068;50.710;14.492;2022-12-07T06:45:36;20.99;42.61
65472;DHT22;52068;50.710;14.492;2022-12-07T06:48:01;20.98;42.53
65472;DHT22;52068;50.710;14.492;2022-12-07T06:50:27;21.00;42.33
65472;DHT22;52068;50.710;14.492;2022-12-07T06:52:52;21.16;41.94
65472;DHT22;52068;50.710;14.492;2022-12-07T06:55:18;21.40;41.35
65472;DHT22;52068;50.710;14.492;2022-12-07T06:57:43;21.64;40.68
65472;DHT22;52068;50.710;14.492;2022-12-07T07:00:09;21.85;40.24
65472;DHT22;52068;50.710;14.492;2022-12-07T07:02:35;21.98;40.01
65472;DHT22;52068;50.710;14.492;2022-12-07T07:05:00;21.98;39.94
65472;DHT22;52068;50.710;14.492;2022-12-07T07:07:26;21.97;40.08
65472;DHT22;52068;50.710;14.492;2022-12-07T07:09:51;21.91;40.13
65472;DHT22;52068;50.710;14.492;2022-12-07T07:12:17;21.83;40.05
65472;DHT22;52068;50.710;14.492;2022-12-07T07:14:42;21.73;40.52
65472;DHT22;52068;50.710;14.492;2022-12-07T07:17:08;21.63;40.51
65472;DHT22;52068;50.710;14.492;2022-12-07T07:19:33;21.55;40.81
65472;DHT22;52068;50.710;14.492;2022-12-07T07:21:59;21.47;41.02
65472;DHT22;52068;50.710;14.492;2022-12-07T07:24:24;21.34;41.12
65472;DHT22;52068;50.710;14.492;2022-12-07T07:26:49;21.27;41.38
65472;DHT22;52068;50.710;14.492;2022-12-07T07:29:15;21.20;41.50
65472;DHT22;52068;50.710;14.492;2022-12-07T07:31:40;21.10;41.62
65472;DHT22;52068;50.710;14.492;2022-12-07T07:34:05;21.06;41.79
65472;DHT22;52068;50.710;14.492;2022-12-07T07:36:31;21.13;41.20
65472;DHT22;52068;50.710;14.492;2022-12-07T07:38:56;21.33;40.75
65472;DHT22;52068;50.710;14.492;2022-12-07T07:41:22;21.58;40.55
65472;DHT22;52068;50.710;14.492;2022-12-07T07:43:47;21.88;39.93
65472;DHT22;52068;50.710;14.492;2022-12-07T07:46:12;22.15;39.26
65472;DHT22;52068;50.710;14.492;2022-12-07T07:48:37;22.28;39.30
65472;DHT22;52068;50.710;14.492;2022-12-07T07:51:07;22.29;38.95
65472;DHT22;52068;50.710;14.492;2022-12-07T07:53:32;22.25;39.46
65472;DHT22;52068;50.710;14.492;2022-12-07T07:55:58;22.16;38.93
65472;DHT22;52068;50.710;14.492;2022-12-07T07:58:23;22.12;39.15
65472;DHT22;52068;50.710;14.492;2022-12-07T08:00:49;22.02;39.26
65472;DHT22;52068;50.710;14.492;2022-12-07T08:03:14;21.94;39.13
65472;DHT22;52068;50.710;14.492;2022-12-07T08:05:40;21.80;39.52
65472;DHT22;52068;50.710;14.492;2022-12-07T08:08:05;21.73;39.80
65472;DHT22;52068;50.710;14.492;2022-12-07T08:10:31;21.60;40.02
65472;DHT22;52068;50.710;14.492;2022-12-07T08:12:58;21.55;40.11
65472;DHT22;52068;50.710;14.492;2022-12-07T08:15:41;21.44;40.33
65472;DHT22;52068;50.710;14.492;2022-12-07T08:18:07;21.34;40.68
65472;DHT22;52068;50.710;14.492;2022-12-07T08:20:33;21.24;40.79
65472;DHT22;52068;50.710;14.492;2022-12-07T08:23:00;21.19;40.79
65472;DHT22;52068;50.710;14.492;2022-12-07T08:25:26;21.10;41.08
65472;DHT22;52068;50.710;14.492;2022-12-07T08:27:51;21.02;40.82
65472;DHT22;52068;50.710;14.492;2022-12-07T08:30:17;20.99;41.01
65472;DHT22;52068;50.710;14.492;2022-12-07T08:32:44;20.99;40.97
65472;DHT22;52068;50.710;14.492;2022-12-07T08:35:10;21.26;40.83
65472;DHT22;52068;50.710;14.492;2022-12-07T08:37:36;21.73;40.37
65472;DHT22;52068;50.710;14.492;2022-12-07T08:40:02;22.26;39.55
65472;DHT22;52068;50.710;14.492;2022-12-07T08:42:28;22.73;38.75
65472;DHT22;52068;50.710;14.492;2022-12-07T08:44:56;23.08;37.88
65472;DHT22;52068;50.710;14.492;2022-12-07T08:47:23;23.28;37.25
65472;DHT22;52068;50.710;14.492;2022-12-07T08:49:50;23.38;36.85
65472;DHT22;52068;50.710;14.492;2022-12-07T08:52:17;23.27;36.43
65472;DHT22;52068;50.710;14.492;2022-12-07T08:54:42;23.08;36.59
65472;DHT22;52068;50.710;14.492;2022-12-07T08:57:09;22.92;36.72
65472;DHT22;52068;50.710;14.492;2022-12-07T08:59:36;22.74;37.04
65472;DHT22;52068;50.710;14.492;2022-12-07T09:02:02;22.62;37.25
65472;DHT22;52068;50.710;14.492;2022-12-07T09:04:27;22.45;37.57
65472;DHT22;52068;50.710;14.492;2022-12-07T09:06:54;22.32;38.48
65472;DHT22;52068;50.710;14.492;2022-12-07T09:09:19;22.15;38.67
65472;DHT22;52068;50.710;14.492;2022-12-07T09:11:45;22.06;38.57
65472;DHT22;52068;50.710;14.492;2022-12-07T09:14:11;21.95;38.83
65472;DHT22;52068;50.710;14.492;2022-12-07T09:16:37;21.85;38.87
65472;DHT22;52068;50.710;14.492;2022-12-07T09:19:03;21.74;39.25
65472;DHT22;52068;50.710;14.492;2022-12-07T09:21:28;21.63;39.46
65472;DHT22;52068;50.710;14.492;2022-12-07T09:23:54;21.53;39.74
65472;DHT22;52068;50.710;14.492;2022-12-07T09:26:19;21.44;40.15
65472;DHT22;52068;50.710;14.492;2022-12-07T09:28:44;21.36;40.25
65472;DHT22;52068;50.710;14.492;2022-12-07T09:31:10;21.27;40.27
65472;DHT22;52068;50.710;14.492;2022-12-07T09:33:35;21.20;40.46
65472;DHT22;52068;50.710;14.492;2022-12-07T09:36:01;21.12;40.35
65472;DHT22;52068;50.710;14.492;2022-12-07T09:38:27;21.09;40.49
65472;DHT22;52068;50.710;14.492;2022-12-07T09:40:55;21.24;40.15
65472;DHT22;52068;50.710;14.492;2022-12-07T09:43:25;21.63;39.55
65472;DHT22;52068;50.710;14.492;2022-12-07T09:45:52;22.09;38.83
65472;DHT22;52068;50.710;14.492;2022-12-07T09:48:20;22.56;37.90
65472;DHT22;52068;50.710;14.492;2022-12-07T09:50:47;22.94;37.35
65472;DHT22;52068;50.710;14.492;2022-12-07T09:53:28;23.21;36.78
65472;DHT22;52068;50.710;14.492;2022-12-07T09:55:55;23.31;36.51
65472;DHT22;52068;50.710;14.492;2022-12-07T09:58:23;23.35;36.38
65472;DHT22;52068;50.710;14.492;2022-12-07T10:01:14;23.33;36.25
65472;DHT22;52068;50.710;14.492;2022-12-07T10:03:44;23.24;36.21
65472;DHT22;52068;50.710;14.492;2022-12-07T10:06:12;23.17;36.75
65472;DHT22;52068;50.710;14.492;2022-12-07T10:08:37;23.02;36.92
65472;DHT22;52068;50.710;14.492;2022-12-07T10:11:03;22.87;37.50
65472;DHT22;52068;50.710;14.492;2022-12-07T10:13:38;22.67;37.31
65472;DHT22;52068;50.710;14.492;2022-12-07T10:16:05;22.49;37.78
65472;DHT22;52068;50.710;14.492;2022-12-07T10:18:31;22.28;38.31
65472;DHT22;52068;50.710;14.492;2022-12-07T10:21:03;22.11;38.64
65472;DHT22;52068;50.710;14.492;2022-12-07T10:23:29;21.98;39.01
65472;DHT22;52068;50.710;14.492;2022-12-07T10:25:55;21.84;38.93
65472;DHT22;52068;50.710;14.492;2022-12-07T10:28:21;21.73;38.98
65472;DHT22;52068;50.710;14.492;2022-12-07T10:30:49;21.61;39.15
65472;DHT22;52068;50.710;14.492;2022-12-07T10:33:36;21.50;39.33
65472;DHT22;52068;50.710;14.492;2022-12-07T10:36:20;21.42;39.71
65472;DHT22;52068;50.710;14.492;2022-12-07T10:38:49;21.30;39.94
65472;DHT22;52068;50.710;14.492;2022-12-07T10:41:14;21.23;40.58
65472;DHT22;52068;50.710;14.492;2022-12-07T10:43:48;21.13;40.03
65472;DHT22;52068;50.710;14.492;2022-12-07T10:52:09;20.96;40.94
65472;DHT22;52068;50.710;14.492;2022-12-07T10:55:07;20.95;41.17
65472;DHT22;52068;50.710;14.492;2022-12-07T11:00:25;20.92;40.91
65472;DHT22;52068;50.710;14.492;2022-12-07T11:03:20;20.93;40.93
65472;DHT22;52068;50.710;14.492;2022-12-07T11:06:02;20.93;41.00
65472;DHT22;52068;50.710;14.492;2022-12-07T11:16:59;20.93;40.63
65472;DHT22;52068;50.710;14.492;2022-12-07T11:22:44;20.95;40.13
65472;DHT22;52068;50.710;14.492;2022-12-07T11:33:19;20.82;40.31
65472;DHT22;52068;50.710;14.492;2022-12-07T11:35:53;20.79;40.60
65472;DHT22;52068;50.710;14.492;2022-12-07T11:38:26;20.73;40.39
65472;DHT22;52068;50.710;14.492;2022-12-07T11:40:58;20.71;40.88
65472;DHT22;52068;50.710;14.492;2022-12-07T11:43:49;20.72;40.84
65472;DHT22;52068;50.710;14.492;2022-12-07T11:46:15;20.69;40.78
65472;DHT22;52068;50.710;14.492;2022-12-07T11:51:45;20.78;40.47
65472;DHT22;52068;50.710;14.492;2022-12-07T11:54:16;20.81;40.78
65472;DHT22;52068;50.710;14.492;2022-12-07T11:56:43;20.81;40.91
65472;DHT22;52068;50.710;14.492;2022-12-07T12:01:42;20.81;40.33
65472;DHT22;52068;50.710;14.492;2022-12-07T12:06:37;20.78;41.26
65472;DHT22;52068;50.710;14.492;2022-12-07T12:11:56;20.69;41.29
65472;DHT22;52068;50.710;14.492;2022-12-07T12:14:43;20.72;41.03
65472;DHT22;52068;50.710;14.492;2022-12-07T12:23:17;20.59;41.71
65472;DHT22;52068;50.710;14.492;2022-12-07T12:25:56;20.71;40.94
65472;DHT22;52068;50.710;14.492;2022-12-07T12:31:14;21.39;40.02
65472;DHT22;52068;50.710;14.492;2022-12-07T12:34:01;21.85;39.05
65472;DHT22;52068;50.710;14.492;2022-12-07T12:39:11;22.55;37.83
65472;DHT22;52068;50.710;14.492;2022-12-07T12:47:02;22.80;36.95
65472;DHT22;52068;50.710;14.492;2022-12-07T12:49:36;22.70;37.04
65472;DHT22;52068;50.710;14.492;2022-12-07T12:57:35;22.31;37.53
65472;DHT22;52068;50.710;14.492;2022-12-07T13:00:20;22.16;37.84
65472;DHT22;52068;50.710;14.492;2022-12-07T13:02:56;21.98;38.33
65472;DHT22;52068;50.710;14.492;2022-12-07T13:05:31;21.84;38.61
65472;DHT22;52068;50.710;14.492;2022-12-07T13:26:16;21.04;40.55
65472;DHT22;52068;50.710;14.492;2022-12-07T13:28:51;21.00;40.56
65472;DHT22;52068;50.710;14.492;2022-12-07T13:33:46;21.04;40.42
65472;DHT22;52068;50.710;14.492;2022-12-07T13:36:27;21.07;40.65
65472;DHT22;52068;50.710;14.492;2022-12-07T13:38:56;21.14;40.50
65472;DHT22;52068;50.710;14.492;2022-12-07T13:41:24;21.14;40.24
65472;DHT22;52068;50.710;14.492;2022-12-07T13:43:52;21.20;40.35
65472;DHT22;52068;50.710;14.492;2022-12-07T13:46:20;21.20;40.62
65472;DHT22;52068;50.710;14.492;2022-12-07T13:48:49;21.16;40.55
65472;DHT22;52068;50.710;14.492;2022-12-07T13:51:25;21.13;40.57
65472;DHT22;52068;50.710;14.492;2022-12-07T13:53:54;21.09;40.65
65472;DHT22;52068;50.710;14.492;2022-12-07T13:56:22;21.03;40.71
65472;DHT22;52068;50.710;14.492;2022-12-07T13:58:51;20.99;40.75
65472;DHT22;52068;50.710;14.492;2022-12-07T14:01:16;20.95;40.91
65472;DHT22;52068;50.710;14.492;2022-12-07T14:03:41;20.86;41.00
65472;DHT22;52068;50.710;14.492;2022-12-07T14:06:18;20.83;41.12
65472;DHT22;52068;50.710;14.492;2022-12-07T14:08:45;20.95;40.74
65472;DHT22;52068;50.710;14.492;2022-12-07T14:11:15;21.19;40.27
65472;DHT22;52068;50.710;14.492;2022-12-07T14:13:58;21.53;39.43
65472;DHT22;52068;50.710;14.492;2022-12-07T14:16:34;21.83;38.86
65472;DHT22;52068;50.710;14.492;2022-12-07T14:19:03;22.12;37.99
65472;DHT22;52068;50.710;14.492;2022-12-07T14:21:31;22.24;37.52
65472;DHT22;52068;50.710;14.492;2022-12-07T14:24:10;22.31;37.45
65472;DHT22;52068;50.710;14.492;2022-12-07T14:26:37;22.25;37.51
65472;DHT22;52068;50.710;14.492;2022-12-07T14:31:52;22.08;37.99
65472;DHT22;52068;50.710;14.492;2022-12-07T14:34:22;22.01;38.43
65472;DHT22;52068;50.710;14.492;2022-12-07T14:36:48;21.97;38.63
65472;DHT22;52068;50.710;14.492;2022-12-07T14:39:13;21.84;38.90
65472;DHT22;52068;50.710;14.492;2022-12-07T14:41:38;21.71;39.32
65472;DHT22;52068;50.710;14.492;2022-12-07T14:44:16;21.55;39.78
65472;DHT22;52068;50.710;14.492;2022-12-07T14:46:42;21.46;40.22
65472;DHT22;52068;50.710;14.492;2022-12-07T14:49:08;21.36;40.47
65472;DHT22;52068;50.710;14.492;2022-12-07T14:51:35;21.23;40.92
65472;DHT22;52068;50.710;14.492;2022-12-07T14:54:04;21.18;41.09
65472;DHT22;52068;50.710;14.492;2022-12-07T14:56:30;21.06;41.21
65472;DHT22;52068;50.710;14.492;2022-12-07T14:58:55;20.99;41.58
65472;DHT22;52068;50.710;14.492;2022-12-07T15:01:21;20.91;41.11
65472;DHT22;52068;50.710;14.492;2022-12-07T15:03:46;21.00;40.79
65472;DHT22;52068;50.710;14.492;2022-12-07T15:06:15;21.40;40.18
65472;DHT22;52068;50.710;14.492;2022-12-07T15:08:40;22.00;39.36
65472;DHT22;52068;50.710;14.492;2022-12-07T15:11:06;22.60;38.50
65472;DHT22;52068;50.710;14.492;2022-12-07T15:13:31;23.10;37.51
65472;DHT22;52068;50.710;14.492;2022-12-07T15:16:19;23.54;36.26
65472;DHT22;52068;50.710;14.492;2022-12-07T15:18:45;23.69;35.91
65472;DHT22;52068;50.710;14.492;2022-12-07T15:21:14;23.82;35.81
65472;DHT22;52068;50.710;14.492;2022-12-07T15:23:40;23.84;35.86
65472;DHT22;52068;50.710;14.492;2022-12-07T15:26:05;23.86;35.73
65472;DHT22;52068;50.710;14.492;2022-12-07T15:28:31;23.74;35.69
65472;DHT22;52068;50.710;14.492;2022-12-07T15:30:56;23.52;36.02
65472;DHT22;52068;50.710;14.492;2022-12-07T15:33:21;23.31;36.33
65472;DHT22;52068;50.710;14.492;2022-12-07T15:35:47;23.07;36.67
65472;DHT22;52068;50.710;14.492;2022-12-07T15:38:12;22.86;37.22
65472;DHT22;52068;50.710;14.492;2022-12-07T15:40:38;22.64;37.66
65472;DHT22;52068;50.710;14.492;2022-12-07T15:43:04;22.45;38.31
65472;DHT22;52068;50.710;14.492;2022-12-07T15:45:30;22.28;38.82
65472;DHT22;52068;50.710;14.492;2022-12-07T15:47:55;22.11;39.36
65472;DHT22;52068;50.710;14.492;2022-12-07T15:50:21;22.00;39.70
65472;DHT22;52068;50.710;14.492;2022-12-07T15:52:47;21.85;40.26
65472;DHT22;52068;50.710;14.492;2022-12-07T15:55:13;21.73;40.75
65472;DHT22;52068;50.710;14.492;2022-12-07T15:57:39;21.55;40.72
65472;DHT22;52068;50.710;14.492;2022-12-07T16:00:06;21.43;41.29
65472;DHT22;52068;50.710;14.492;2022-12-07T16:02:32;21.33;41.75
65472;DHT22;52068;50.710;14.492;2022-12-07T16:04:57;21.22;42.24
65472;DHT22;52068;50.710;14.492;2022-12-07T16:07:22;21.12;42.31
65472;DHT22;52068;50.710;14.492;2022-12-07T16:09:48;21.06;41.99
65472;DHT22;52068;50.710;14.492;2022-12-07T16:12:15;21.09;41.47
65472;DHT22;52068;50.710;14.492;2022-12-07T16:14:40;21.37;40.97
65472;DHT22;52068;50.710;14.492;2022-12-07T16:17:07;21.75;40.32
65472;DHT22;52068;50.710;14.492;2022-12-07T16:19:33;22.21;39.98
65472;DHT22;52068;50.710;14.492;2022-12-07T16:21:59;22.62;39.05
65472;DHT22;52068;50.710;14.492;2022-12-07T16:24:25;22.87;38.31
65472;DHT22;52068;50.710;14.492;2022-12-07T16:26:50;23.02;37.76
65472;DHT22;52068;50.710;14.492;2022-12-07T16:29:17;22.99;37.66
65472;DHT22;52068;50.710;14.492;2022-12-07T16:31:43;22.92;37.49
65472;DHT22;52068;50.710;14.492;2022-12-07T16:34:09;22.79;37.55
65472;DHT22;52068;50.710;14.492;2022-12-07T16:36:34;22.72;37.82
65472;DHT22;52068;50.710;14.492;2022-12-07T16:39:01;22.62;37.89
65472;DHT22;52068;50.710;14.492;2022-12-07T16:41:27;22.45;38.16
65472;DHT22;52068;50.710;14.492;2022-12-07T16:43:52;22.28;38.42
65472;DHT22;52068;50.710;14.492;2022-12-07T16:46:18;22.12;38.93
65472;DHT22;52068;50.710;14.492;2022-12-07T16:48:43;21.94;39.40
65472;DHT22;52068;50.710;14.492;2022-12-07T16:51:11;21.83;39.68
65472;DHT22;52068;50.710;14.492;2022-12-07T16:53:38;21.68;40.05
65472;DHT22;52068;50.710;14.492;2022-12-07T16:56:05;21.57;40.41
65472;DHT22;52068;50.710;14.492;2022-12-07T16:58:34;21.46;40.15
65472;DHT22;52068;50.710;14.492;2022-12-07T17:00:59;21.39;40.46
65472;DHT22;52068;50.710;14.492;2022-12-07T17:03:25;21.27;40.68
65472;DHT22;52068;50.710;14.492;2022-12-07T17:05:50;21.23;41.45
65472;DHT22;52068;50.710;14.492;2022-12-07T17:08:15;21.26;41.73
65472;DHT22;52068;50.710;14.492;2022-12-07T17:10:43;21.27;41.86
65472;DHT22;52068;50.710;14.492;2022-12-07T17:13:10;21.29;41.64
65472;DHT22;52068;50.710;14.492;2022-12-07T17:15:58;21.32;41.93
65472;DHT22;52068;50.710;14.492;2022-12-07T17:18:27;21.33;41.74